sensor_id;sensor_type;location;lat;lon;timestamp;temperature;humidity
3919;DHT22;1974;48.670;8.994;2023-03-01T00:01:10;-0.80;99.90
3919;DHT22;1974;48.670;8.994;2023-03-01T00:03:37;-0.80;99.90
3919;DHT22;1974;48.670;8.994;2023-03-01T00:06:05;-0.80;99.90
3919;DHT22;1974;48.670;8.994;2023-03-01T00:08:32;-0.80;99.90
3919;DHT22;1974;48.670;8.994;2023-03-01T00:11:00;-0.80;99.90
3919;DHT22;1974;48.670;8.994;2023-03-01T00:13:27;-0.80;99.90
3919;DHT22;1974;48.670;8.994;2023-03-01T00:15:54;-0.90;99.90
3919;DHT22;1974;48.670;8.994;2023-03-01T00:18:22;-0.90;99.90
3919;DHT22;1974;48.670;8.994;2023-03-01T00:20:50;-0.90;99.90
3919;DHT22;1974;48.670;8.994;2023-03-01T00:23:17;-0.90;99.90
3919;DHT22;1974;48.670;8.994;2023-03-01T00:25:44;-0.90;99.90
3919;DHT22;1974;48.670;8.994;2023-03-01T00:28:11;-0.90;99.90
3919;DHT22;1974;48.670;8.994;2023-03-01T00:30:37;-1.00;99.90
3919;DHT22;1974;48.670;8.994;2023-03-01T00:33:04;-1.00;99.90
3919;DHT22;1974;48.670;8.994;2023-03-01T00:35:33;-1.00;99.90
3919;DHT22;1974;48.670;8.994;2023-03-01T00:38:00;-1.00;99.90
3919;DHT22;1974;48.670;8.994;2023-03-01T00:40:29;-1.00;99.90
3919;DHT22;1974;48.670;8.994;2023-03-01T00:42:56;-1.10;99.90
3919;DHT22;1974;48.670;8.994;2023-03-01T00:45:23;-1.00;99.90
3919;DHT22;1974;48.670;8.994;2023-03-01T00:47:50;-1.10;99.90
3919;DHT22;1974;48.670;8.994;2023-03-01T00:50:17;-1.10;99.90
3919;DHT22;1974;48.670;8.994;2023-03-01T00:52:45;-1.10;99.90
3919;DHT22;1974;48.670;8.994;2023-03-01T00:55:13;-1.10;99.90
3919;DHT22;1974;48.670;8.994;2023-03-01T00:57:39;-1.10;99.90
3919;DHT22;1974;48.670;8.994;2023-03-01T01:00:07;-1.10;99.90
3919;DHT22;1974;48.670;8.994;2023-03-01T01:02:35;-1.20;99.90
3919;DHT22;1974;48.670;8.994;2023-03-01T01:05:02;-1.20;99.90
3919;DHT22;1974;48.670;8.994;2023-03-01T01:07:29;-1.20;99.90
3919;DHT22;1974;48.670;8.994;2023-03-01T01:09:57;-1.20;99.90
3919;DHT22;1974;48.670;8.994;2023-03-01T01:12:24;-1.20;99.90
3919;DHT22;1974;48.670;8.994;2023-03-01T01:14:50;-1.30;99.90
3919;DHT22;1974;48.670;8.994;2023-03-01T01:17:18;-1.20;99.90
3919;DHT22;1974;48.670;8.994;2023-03-01T01:19:45;-1.30;99.90
3919;DHT22;1974;48.670;8.994;2023-03-01T01:22:12;-1.30;99.90
3919;DHT22;1974;48.670;8.994;2023-03-01T01:24:38;-1.30;99.90
3919;DHT22;1974;48.670;8.994;2023-03-01T01:27:06;-1.30;99.90
3919;DHT22;1974;48.670;8.994;2023-03-01T01:29:33;-1.40;99.90
3919;DHT22;1974;48.670;8.994;2023-03-01T01:32:00;-1.40;99.90
3919;DHT22;1974;48.670;8.994;2023-03-01T01:34:26;-1.40;99.90
3919;DHT22;1974;48.670;8.994;2023-03-01T01:36:53;-1.40;99.90
3919;DHT22;1974;48.670;8.994;2023-03-01T01:39:20;-1.40;99.90
3919;DHT22;1974;48.670;8.994;2023-03-01T01:41:47;-1.40;99.90
3919;DHT22;1974;48.670;8.994;2023-03-01T01:44:19;-1.40;99.90
3919;DHT22;1974;48.670;8.994;2023-03-01T01:46:49;-1.40;99.90
3919;DHT22;1974;48.670;8.994;2023-03-01T01:49:22;-1.50;99.90
3919;DHT22;1974;48.670;8.994;2023-03-01T01:51:55;-1.50;99.90
3919;DHT22;1974;48.670;8.994;2023-03-01T01:54:26;-1.50;99.90
3919;DHT22;1974;48.670;8.994;2023-03-01T01:56:56;-1.60;99.90
3919;DHT22;1974;48.670;8.994;2023-03-01T01:59:28;-1.60;99.90
3919;DHT22;1974;48.670;8.994;2023-03-01T02:01:58;-1.70;99.90
3919;DHT22;1974;48.670;8.994;2023-03-01T02:04:25;-1.70;99.90
3919;DHT22;1974;48.670;8.994;2023-03-01T02:06:58;-1.70;99.90
3919;DHT22;1974;48.670;8.994;2023-03-01T02:09:26;-1.70;99.90
3919;DHT22;1974;48.670;8.994;2023-03-01T02:11:53;-1.70;99.90
3919;DHT22;1974;48.670;8.994;2023-03-01T02:14:20;-1.70;99.90
3919;DHT22;1974;48.670;8.994;2023-03-01T02:16:48;-1.70;99.90
3919;DHT22;1974;48.670;8.994;2023-03-01T02:19:23;-1.70;99.90
3919;DHT22;1974;48.670;8.994;2023-03-01T02:21:59;-1.60;99.90
3919;DHT22;1974;48.670;8.994;2023-03-01T02:24:41;-1.50;99.90
3919;DHT22;1974;48.670;8.994;2023-03-01T02:27:11;-1.40;99.90
3919;DHT22;1974;48.670;8.994;2023-03-01T02:29:39;-1.30;99.90
3919;DHT22;1974;48.670;8.994;2023-03-01T02:32:10;-1.20;99.90
3919;DHT22;1974;48.670;8.994;2023-03-01T02:34:38;-1.20;99.90
3919;DHT22;1974;48.670;8.994;2023-03-01T02:37:11;-1.10;99.90
3919;DHT22;1974;48.670;8.994;2023-03-01T02:39:42;-0.90;99.90
3919;DHT22;1974;48.670;8.994;2023-03-01T02:42:13;-0.90;99.90
3919;DHT22;1974;48.670;8.994;2023-03-01T02:44:42;-0.90;99.90
3919;DHT22;1974;48.670;8.994;2023-03-01T02:47:09;-0.90;99.90
3919;DHT22;1974;48.670;8.994;2023-03-01T02:49:36;-0.80;99.90
3919;DHT22;1974;48.670;8.994;2023-03-01T02:52:39;-0.80;99.90
3919;DHT22;1974;48.670;8.994;2023-03-01T02:55:11;-0.70;99.90
3919;DHT22;1974;48.670;8.994;2023-03-01T02:57:40;-0.70;99.90
3919;DHT22;1974;48.670;8.994;2023-03-01T03:00:12;-0.70;99.90
3919;DHT22;1974;48.670;8.994;2023-03-01T03:02:45;-0.70;99.90
3919;DHT22;1974;48.670;8.994;2023-03-01T03:05:14;-0.60;99.90
3919;DHT22;1974;48.670;8.994;2023-03-01T03:07:43;-0.50;99.90
3919;DHT22;1974;48.670;8.994;2023-03-01T03:10:12;-0.60;99.90
3919;DHT22;1974;48.670;8.994;2023-03-01T03:12:40;-0.60;99.90
3919;DHT22;1974;48.670;8.994;2023-03-01T03:15:08;-0.60;99.90
3919;DHT22;1974;48.670;8.994;2023-03-01T03:17:37;-0.50;99.90
3919;DHT22;1974;48.670;8.994;2023-03-01T03:20:05;-0.50;99.90
3919;DHT22;1974;48.670;8.994;2023-03-01T03:22:36;-0.50;99.90
3919;DHT22;1974;48.670;8.994;2023-03-01T03:25:03;-0.50;99.90
3919;DHT22;1974;48.670;8.994;2023-03-01T03:27:30;-0.50;99.90
3919;DHT22;1974;48.670;8.994;2023-03-01T03:29:57;-0.50;99.90
3919;DHT22;1974;48.670;8.994;2023-03-01T03:32:24;-0.50;99.90
3919;DHT22;1974;48.670;8.994;2023-03-01T03:34:52;-0.50;99.90
3919;DHT22;1974;48.670;8.994;2023-03-01T03:37:18;-0.40;99.90
3919;DHT22;1974;48.670;8.994;2023-03-01T03:39:59;-0.40;99.90
3919;DHT22;1974;48.670;8.994;2023-03-01T03:42:25;-0.40;99.90
3919;DHT22;1974;48.670;8.994;2023-03-01T03:44:52;-0.40;99.90
3919;DHT22;1974;48.670;8.994;2023-03-01T03:47:19;-0.40;99.90
3919;DHT22;1974;48.670;8.994;2023-03-01T03:49:45;-0.40;99.90
3919;DHT22;1974;48.670;8.994;2023-03-01T03:52:13;-0.40;99.90
3919;DHT22;1974;48.670;8.994;2023-03-01T03:54:40;-0.40;99.90
3919;DHT22;1974;48.670;8.994;2023-03-01T03:57:07;-0.40;99.90
3919;DHT22;1974;48.670;8.994;2023-03-01T03:59:33;-0.40;99.90
3919;DHT22;1974;48.670;8.994;2023-03-01T04:02:00;-0.40;99.90
3919;DHT22;1974;48.670;8.994;2023-03-01T04:04:27;-0.40;99.90
3919;DHT22;1974;48.670;8.994;2023-03-01T04:06:53;-0.40;99.90
3919;DHT22;1974;48.670;8.994;2023-03-01T04:09:21;-0.30;99.90
3919;DHT22;1974;48.670;8.994;2023-03-01T04:11:48;-0.30;99.90
3919;DHT22;1974;48.670;8.994;2023-03-01T04:14:15;-0.30;99.90
3919;DHT22;1974;48.670;8.994;2023-03-01T04:16:41;-0.30;99.90
3919;DHT22;1974;48.670;8.994;2023-03-01T04:19:08;-0.30;99.90
3919;DHT22;1974;48.670;8.994;2023-03-01T04:21:36;-0.30;99.90
3919;DHT22;1974;48.670;8.994;2023-03-01T04:24:03;-0.30;99.90
3919;DHT22;1974;48.670;8.994;2023-03-01T04:26:31;-0.30;99.90
3919;DHT22;1974;48.670;8.994;2023-03-01T04:28:57;-0.20;99.90
3919;DHT22;1974;48.670;8.994;2023-03-01T04:31:24;-0.30;99.90
3919;DHT22;1974;48.670;8.994;2023-03-01T04:33:52;-0.30;99.90
3919;DHT22;1974;48.670;8.994;2023-03-01T04:36:20;-0.20;99.90
3919;DHT22;1974;48.670;8.994;2023-03-01T04:38:48;-0.20;99.90
3919;DHT22;1974;48.670;8.994;2023-03-01T04:41:16;-0.20;99.90
3919;DHT22;1974;48.670;8.994;2023-03-01T04:43:45;-0.20;99.90
3919;DHT22;1974;48.670;8.994;2023-03-01T04:46:13;-0.20;99.90
3919;DHT22;1974;48.670;8.994;2023-03-01T04:48:41;-0.20;99.90
3919;DHT22;1974;48.670;8.994;2023-03-01T04:51:09;-0.20;99.90
3919;DHT22;1974;48.670;8.994;2023-03-01T04:53:39;-0.20;99.90
3919;DHT22;1974;48.670;8.994;2023-03-01T04:56:06;-0.20;99.90
3919;DHT22;1974;48.670;8.994;2023-03-01T04:58:32;-0.30;99.90
3919;DHT22;1974;48.670;8.994;2023-03-01T05:01:00;-0.30;99.90
3919;DHT22;1974;48.670;8.994;2023-03-01T05:03:27;-0.30;99.90
3919;DHT22;1974;48.670;8.994;2023-03-01T05:05:54;-0.30;99.90
3919;DHT22;1974;48.670;8.994;2023-03-01T05:08:24;-0.20;99.90
3919;DHT22;1974;48.670;8.994;2023-03-01T05:10:53;-0.20;99.90
3919;DHT22;1974;48.670;8.994;2023-03-01T05:13:20;-0.20;99.90
3919;DHT22;1974;48.670;8.994;2023-03-01T05:15:48;-0.20;99.90
3919;DHT22;1974;48.670;8.994;2023-03-01T05:18:16;-0.20;99.90
3919;DHT22;1974;48.670;8.994;2023-03-01T05:20:43;-0.10;99.90
3919;DHT22;1974;48.670;8.994;2023-03-01T05:23:10;0.00;99.90
3919;DHT22;1974;48.670;8.994;2023-03-01T05:25:37;0.00;99.90
3919;DHT22;1974;48.670;8.994;2023-03-01T05:28:06;0.00;99.90
3919;DHT22;1974;48.670;8.994;2023-03-01T05:30:35;0.00;99.90
3919;DHT22;1974;48.670;8.994;2023-03-01T05:33:04;0.00;99.90
3919;DHT22;1974;48.670;8.994;2023-03-01T05:35:40;0.00;99.90
3919;DHT22;1974;48.670;8.994;2023-03-01T05:38:07;0.00;99.90
3919;DHT22;1974;48.670;8.994;2023-03-01T05:40:34;0.00;99.90
3919;DHT22;1974;48.670;8.994;2023-03-01T05:43:01;0.00;99.90
3919;DHT22;1974;48.670;8.994;2023-03-01T05:45:31;0.00;99.90
3919;DHT22;1974;48.670;8.994;2023-03-01T05:47:59;0.00;99.90
3919;DHT22;1974;48.670;8.994;2023-03-01T05:50:27;0.00;99.90
3919;DHT22;1974;48.670;8.994;2023-03-01T05:52:59;0.00;99.90
3919;DHT22;1974;48.670;8.994;2023-03-01T05:55:26;0.00;99.90
3919;DHT22;1974;48.670;8.994;2023-03-01T05:57:54;0.10;99.90
3919;DHT22;1974;48.670;8.994;2023-03-01T06:00:21;0.10;99.90
3919;DHT22;1974;48.670;8.994;2023-03-01T06:02:48;0.10;99.90
3919;DHT22;1974;48.670;8.994;2023-03-01T06:05:15;0.10;99.90
3919;DHT22;1974;48.670;8.994;2023-03-01T06:07:42;0.10;99.90
3919;DHT22;1974;48.670;8.994;2023-03-01T06:10:12;0.10;99.90
3919;DHT22;1974;48.670;8.994;2023-03-01T06:12:40;0.10;99.90
3919;DHT22;1974;48.670;8.994;2023-03-01T06:15:08;0.10;99.90
3919;DHT22;1974;48.670;8.994;2023-03-01T06:17:38;0.10;99.90
3919;DHT22;1974;48.670;8.994;2023-03-01T06:20:08;0.10;99.90
3919;DHT22;1974;48.670;8.994;2023-03-01T06:22:35;0.10;99.90
3919;DHT22;1974;48.670;8.994;2023-03-01T06:25:02;0.10;99.90
3919;DHT22;1974;48.670;8.994;2023-03-01T06:27:30;0.10;99.90
3919;DHT22;1974;48.670;8.994;2023-03-01T06:29:56;0.20;99.90
3919;DHT22;1974;48.670;8.994;2023-03-01T06:32:23;0.20;99.90
3919;DHT22;1974;48.670;8.994;2023-03-01T06:34:50;0.20;99.90
3919;DHT22;1974;48.670;8.994;2023-03-01T06:37:16;0.30;99.90
3919;DHT22;1974;48.670;8.994;2023-03-01T06:39:43;0.30;99.90
3919;DHT22;1974;48.670;8.994;2023-03-01T06:42:10;0.30;99.90
3919;DHT22;1974;48.670;8.994;2023-03-01T06:44:38;0.40;99.90
3919;DHT22;1974;48.670;8.994;2023-03-01T06:47:05;0.50;99.90
3919;DHT22;1974;48.670;8.994;2023-03-01T06:49:31;0.50;99.90
3919;DHT22;1974;48.670;8.994;2023-03-01T06:51:58;0.50;99.90
3919;DHT22;1974;48.670;8.994;2023-03-01T06:54:25;0.60;99.90
3919;DHT22;1974;48.670;8.994;2023-03-01T06:56:52;0.60;99.90
3919;DHT22;1974;48.670;8.994;2023-03-01T06:59:19;0.80;99.90
3919;DHT22;1974;48.670;8.994;2023-03-01T07:01:48;0.80;99.90
3919;DHT22;1974;48.670;8.994;2023-03-01T07:04:14;0.90;99.90
3919;DHT22;1974;48.670;8.994;2023-03-01T07:06:41;0.90;99.90
3919;DHT22;1974;48.670;8.994;2023-03-01T07:09:08;0.90;99.90
3919;DHT22;1974;48.670;8.994;2023-03-01T07:11:34;1.00;99.90
3919;DHT22;1974;48.670;8.994;2023-03-01T07:14:01;1.10;99.90
3919;DHT22;1974;48.670;8.994;2023-03-01T07:16:28;1.10;99.90
3919;DHT22;1974;48.670;8.994;2023-03-01T07:18:56;1.10;99.90
3919;DHT22;1974;48.670;8.994;2023-03-01T07:21:23;1.10;99.90
3919;DHT22;1974;48.670;8.994;2023-03-01T07:23:49;1.00;99.90
3919;DHT22;1974;48.670;8.994;2023-03-01T07:26:16;1.00;99.90
3919;DHT22;1974;48.670;8.994;2023-03-01T07:28:43;1.10;99.90
3919;DHT22;1974;48.670;8.994;2023-03-01T07:31:09;1.10;99.90
3919;DHT22;1974;48.670;8.994;2023-03-01T07:33:36;1.10;99.90
3919;DHT22;1974;48.670;8.994;2023-03-01T07:36:05;1.10;99.90
3919;DHT22;1974;48.670;8.994;2023-03-01T07:38:33;1.10;99.90
3919;DHT22;1974;48.670;8.994;2023-03-01T07:41:01;1.10;99.90
3919;DHT22;1974;48.670;8.994;2023-03-01T07:43:28;1.10;99.90
3919;DHT22;1974;48.670;8.994;2023-03-01T07:45:58;1.10;99.90
3919;DHT22;1974;48.670;8.994;2023-03-01T07:48:24;1.10;99.90
3919;DHT22;1974;48.670;8.994;2023-03-01T07:50:51;1.10;99.90
3919;DHT22;1974;48.670;8.994;2023-03-01T07:53:19;1.20;99.90
3919;DHT22;1974;48.670;8.994;2023-03-01T07:55:46;1.20;99.90
3919;DHT22;1974;48.670;8.994;2023-03-01T07:58:12;1.20;99.90
3919;DHT22;1974;48.670;8.994;2023-03-01T08:00:39;1.20;99.90
3919;DHT22;1974;48.670;8.994;2023-03-01T08:03:06;1.20;99.90
3919;DHT22;1974;48.670;8.994;2023-03-01T08:05:32;1.20;99.90
3919;DHT22;1974;48.670;8.994;2023-03-01T08:07:59;1.20;99.90
3919;DHT22;1974;48.670;8.994;2023-03-01T08:10:27;1.30;99.90
3919;DHT22;1974;48.670;8.994;2023-03-01T08:12:54;1.40;99.90
3919;DHT22;1974;48.670;8.994;2023-03-01T08:15:20;1.50;99.90
3919;DHT22;1974;48.670;8.994;2023-03-01T08:17:49;1.50;99.90
3919;DHT22;1974;48.670;8.994;2023-03-01T08:20:16;1.50;99.90
3919;DHT22;1974;48.670;8.994;2023-03-01T08:22:43;1.60;99.90
3919;DHT22;1974;48.670;8.994;2023-03-01T08:25:10;1.70;99.90
3919;DHT22;1974;48.670;8.994;2023-03-01T08:27:38;1.80;99.90
3919;DHT22;1974;48.670;8.994;2023-03-01T08:30:06;1.80;99.90
3919;DHT22;1974;48.670;8.994;2023-03-01T08:32:35;2.00;99.90
3919;DHT22;1974;48.670;8.994;2023-03-01T08:35:02;2.10;99.90
3919;DHT22;1974;48.670;8.994;2023-03-01T08:37:29;2.20;99.90
3919;DHT22;1974;48.670;8.994;2023-03-01T08:39:58;2.30;99.90
3919;DHT22;1974;48.670;8.994;2023-03-01T08:42:25;2.50;99.90
3919;DHT22;1974;48.670;8.994;2023-03-01T08:44:53;2.70;99.90
3919;DHT22;1974;48.670;8.994;2023-03-01T08:47:20;2.80;99.90
3919;DHT22;1974;48.670;8.994;2023-03-01T08:49:46;3.00;99.90
3919;DHT22;1974;48.670;8.994;2023-03-01T08:52:13;3.20;99.90
3919;DHT22;1974;48.670;8.994;2023-03-01T08:54:40;3.30;99.90
3919;DHT22;1974;48.670;8.994;2023-03-01T08:57:06;3.50;99.90
3919;DHT22;1974;48.670;8.994;2023-03-01T08:59:35;3.60;99.90
3919;DHT22;1974;48.670;8.994;2023-03-01T09:02:04;3.70;99.90
3919;DHT22;1974;48.670;8.994;2023-03-01T09:04:30;3.80;99.90
3919;DHT22;1974;48.670;8.994;2023-03-01T09:06:58;4.00;99.90
3919;DHT22;1974;48.670;8.994;2023-03-01T09:09:25;4.30;99.90
3919;DHT22;1974;48.670;8.994;2023-03-01T09:11:52;4.40;99.90
3919;DHT22;1974;48.670;8.994;2023-03-01T09:14:18;4.60;99.90
3919;DHT22;1974;48.670;8.994;2023-03-01T09:16:45;5.00;99.90
3919;DHT22;1974;48.670;8.994;2023-03-01T09:19:13;5.60;99.90
3919;DHT22;1974;48.670;8.994;2023-03-01T09:21:40;6.00;99.90
3919;DHT22;1974;48.670;8.994;2023-03-01T09:24:19;6.70;99.90
3919;DHT22;1974;48.670;8.994;2023-03-01T09:26:46;7.80;99.90
3919;DHT22;1974;48.670;8.994;2023-03-01T09:29:14;8.50;99.90
3919;DHT22;1974;48.670;8.994;2023-03-01T09:31:41;8.80;97.90
3919;DHT22;1974;48.670;8.994;2023-03-01T09:34:08;9.30;96.10
3919;DHT22;1974;48.670;8.994;2023-03-01T09:36:37;9.50;94.40
3919;DHT22;1974;48.670;8.994;2023-03-01T09:39:04;9.60;93.30
3919;DHT22;1974;48.670;8.994;2023-03-01T09:41:49;10.20;91.20
3919;DHT22;1974;48.670;8.994;2023-03-01T09:44:30;10.90;87.50
3919;DHT22;1974;48.670;8.994;2023-03-01T09:46:58;10.80;84.60
3919;DHT22;1974;48.670;8.994;2023-03-01T09:49:27;11.00;84.30
3919;DHT22;1974;48.670;8.994;2023-03-01T09:52:00;11.00;80.30
3919;DHT22;1974;48.670;8.994;2023-03-01T09:54:27;10.40;81.80
3919;DHT22;1974;48.670;8.994;2023-03-01T09:57:07;10.00;82.30
3919;DHT22;1974;48.670;8.994;2023-03-01T10:02:30;10.80;79.30
3919;DHT22;1974;48.670;8.994;2023-03-01T10:05:14;11.50;77.00
3919;DHT22;1974;48.670;8.994;2023-03-01T10:07:53;11.80;75.20
3919;DHT22;1974;48.670;8.994;2023-03-01T10:10:28;11.60;74.70
3919;DHT22;1974;48.670;8.994;2023-03-01T10:12:56;11.00;73.00
3919;DHT22;1974;48.670;8.994;2023-03-01T10:15:32;10.50;74.00
3919;DHT22;1974;48.670;8.994;2023-03-01T10:18:02;10.20;75.60
3919;DHT22;1974;48.670;8.994;2023-03-01T10:20:42;9.80;76.80
3919;DHT22;1974;48.670;8.994;2023-03-01T10:23:11;9.70;77.90
3919;DHT22;1974;48.670;8.994;2023-03-01T10:25:47;9.70;77.90
3919;DHT22;1974;48.670;8.994;2023-03-01T10:28:17;10.00;77.70
3919;DHT22;1974;48.670;8.994;2023-03-01T10:30:45;10.50;75.80
3919;DHT22;1974;48.670;8.994;2023-03-01T10:33:17;11.30;72.80
3919;DHT22;1974;48.670;8.994;2023-03-01T10:35:44;12.40;71.00
3919;DHT22;1974;48.670;8.994;2023-03-01T10:38:15;13.40;67.10
3919;DHT22;1974;48.670;8.994;2023-03-01T10:40:53;14.50;64.50
3919;DHT22;1974;48.670;8.994;2023-03-01T10:43:21;15.10;60.20
3919;DHT22;1974;48.670;8.994;2023-03-01T10:45:48;15.10;58.70
3919;DHT22;1974;48.670;8.994;2023-03-01T10:48:17;15.10;57.80
3919;DHT22;1974;48.670;8.994;2023-03-01T10:50:46;14.70;57.50
3919;DHT22;1974;48.670;8.994;2023-03-01T10:53:24;14.90;57.30
3919;DHT22;1974;48.670;8.994;2023-03-01T10:56:04;14.80;56.60
3919;DHT22;1974;48.670;8.994;2023-03-01T10:58:33;15.10;56.00
3919;DHT22;1974;48.670;8.994;2023-03-01T11:01:02;15.00;55.90
3919;DHT22;1974;48.670;8.994;2023-03-01T11:03:31;15.40;55.10
3919;DHT22;1974;48.670;8.994;2023-03-01T11:06:02;16.00;54.00
3919;DHT22;1974;48.670;8.994;2023-03-01T11:08:36;16.20;53.30
3919;DHT22;1974;48.670;8.994;2023-03-01T11:11:25;15.80;53.10
3919;DHT22;1974;48.670;8.994;2023-03-01T11:13:58;14.40;54.30
3919;DHT22;1974;48.670;8.994;2023-03-01T11:16:28;12.70;56.50
3919;DHT22;1974;48.670;8.994;2023-03-01T11:18:57;11.30;59.30
3919;DHT22;1974;48.670;8.994;2023-03-01T11:21:25;10.40;61.80
3919;DHT22;1974;48.670;8.994;2023-03-01T11:23:54;9.50;65.20
3919;DHT22;1974;48.670;8.994;2023-03-01T11:26:21;8.70;67.20
3919;DHT22;1974;48.670;8.994;2023-03-01T11:28:51;8.10;70.10
3919;DHT22;1974;48.670;8.994;2023-03-01T11:31:21;7.70;71.50
3919;DHT22;1974;48.670;8.994;2023-03-01T11:33:53;7.40;73.50
3919;DHT22;1974;48.670;8.994;2023-03-01T11:36:28;7.30;74.00
3919;DHT22;1974;48.670;8.994;2023-03-01T11:39:03;7.20;75.50
3919;DHT22;1974;48.670;8.994;2023-03-01T11:41:31;7.10;75.30
3919;DHT22;1974;48.670;8.994;2023-03-01T11:44:02;7.10;76.70
3919;DHT22;1974;48.670;8.994;2023-03-01T11:46:54;7.00;76.50
3919;DHT22;1974;48.670;8.994;2023-03-01T11:49:53;6.90;78.10
3919;DHT22;1974;48.670;8.994;2023-03-01T11:52:30;6.90;77.80
3919;DHT22;1974;48.670;8.994;2023-03-01T11:58:08;6.70;78.10
3919;DHT22;1974;48.670;8.994;2023-03-01T12:00:44;6.70;79.00
3919;DHT22;1974;48.670;8.994;2023-03-01T12:03:25;6.60;80.10
3919;DHT22;1974;48.670;8.994;2023-03-01T12:06:24;6.70;80.80
3919;DHT22;1974;48.670;8.994;2023-03-01T12:09:02;6.80;80.00
3919;DHT22;1974;48.670;8.994;2023-03-01T12:11:46;6.80;80.00
3919;DHT22;1974;48.670;8.994;2023-03-01T12:14:28;6.90;81.60
3919;DHT22;1974;48.670;8.994;2023-03-01T12:20:02;6.90;81.10
3919;DHT22;1974;48.670;8.994;2023-03-01T12:22:39;6.80;79.90
3919;DHT22;1974;48.670;8.994;2023-03-01T12:25:28;6.60;80.60
3919;DHT22;1974;48.670;8.994;2023-03-01T12:28:16;6.50;81.20
3919;DHT22;1974;48.670;8.994;2023-03-01T12:31:06;6.50;82.30
3919;DHT22;1974;48.670;8.994;2023-03-01T12:33:44;6.50;83.10
3919;DHT22;1974;48.670;8.994;2023-03-01T12:36:24;6.60;83.00
3919;DHT22;1974;48.670;8.994;2023-03-01T12:39:03;6.60;81.70
3919;DHT22;1974;48.670;8.994;2023-03-01T12:41:43;6.50;82.50
3919;DHT22;1974;48.670;8.994;2023-03-01T12:44:29;6.40;82.70
3919;DHT22;1974;48.670;8.994;2023-03-01T12:47:06;6.40;83.50
3919;DHT22;1974;48.670;8.994;2023-03-01T12:49:37;6.40;82.50
3919;DHT22;1974;48.670;8.994;2023-03-01T12:52:11;6.20;83.60
3919;DHT22;1974;48.670;8.994;2023-03-01T12:54:39;6.20;84.00
3919;DHT22;1974;48.670;8.994;2023-03-01T12:57:12;6.20;85.10
3919;DHT22;1974;48.670;8.994;2023-03-01T12:59:51;6.30;84.80
3919;DHT22;1974;48.670;8.994;2023-03-01T13:02:30;6.30;84.60
3919;DHT22;1974;48.670;8.994;2023-03-01T13:05:06;6.30;84.80
3919;DHT22;1974;48.670;8.994;2023-03-01T13:07:43;6.30;83.60
3919;DHT22;1974;48.670;8.994;2023-03-01T13:10:21;6.20;84.60
3919;DHT22;1974;48.670;8.994;2023-03-01T13:13:00;6.30;85.50
3919;DHT22;1974;48.670;8.994;2023-03-01T13:15:34;6.30;85.20
3919;DHT22;1974;48.670;8.994;2023-03-01T13:18:03;6.30;85.60
3919;DHT22;1974;48.670;8.994;2023-03-01T13:20:33;6.40;84.70
3919;DHT22;1974;48.670;8.994;2023-03-01T13:23:04;6.40;84.90
3919;DHT22;1974;48.670;8.994;2023-03-01T13:25:32;6.30;85.20
3919;DHT22;1974;48.670;8.994;2023-03-01T13:31:05;6.30;85.00
3919;DHT22;1974;48.670;8.994;2023-03-01T13:33:43;6.20;85.20
3919;DHT22;1974;48.670;8.994;2023-03-01T13:36:11;6.10;85.90
3919;DHT22;1974;48.670;8.994;2023-03-01T13:39:00;6.10;86.00
3919;DHT22;1974;48.670;8.994;2023-03-01T13:41:50;6.00;85.90
3919;DHT22;1974;48.670;8.994;2023-03-01T13:44:30;6.00;86.50
3919;DHT22;1974;48.670;8.994;2023-03-01T13:47:05;6.10;86.80
3919;DHT22;1974;48.670;8.994;2023-03-01T13:49:43;6.10;87.30
3919;DHT22;1974;48.670;8.994;2023-03-01T13:52:35;6.20;87.00
3919;DHT22;1974;48.670;8.994;2023-03-01T13:55:03;6.20;87.00
3919;DHT22;1974;48.670;8.994;2023-03-01T13:57:34;6.20;87.20
3919;DHT22;1974;48.670;8.994;2023-03-01T14:00:05;6.20;87.00
3919;DHT22;1974;48.670;8.994;2023-03-01T14:02:34;6.20;87.30
3919;DHT22;1974;48.670;8.994;2023-03-01T14:05:01;6.20;87.50
3919;DHT22;1974;48.670;8.994;2023-03-01T14:07:28;6.20;87.30
3919;DHT22;1974;48.670;8.994;2023-03-01T14:09:58;6.20;87.50
3919;DHT22;1974;48.670;8.994;2023-03-01T14:12:33;6.20;87.70
3919;DHT22;1974;48.670;8.994;2023-03-01T14:15:08;6.30;88.10
3919;DHT22;1974;48.670;8.994;2023-03-01T14:20:31;6.30;88.20
3919;DHT22;1974;48.670;8.994;2023-03-01T14:23:02;6.30;88.40
3919;DHT22;1974;48.670;8.994;2023-03-01T14:25:36;6.30;88.60
3919;DHT22;1974;48.670;8.994;2023-03-01T14:28:11;6.30;88.60
3919;DHT22;1974;48.670;8.994;2023-03-01T14:30:43;6.30;89.10
3919;DHT22;1974;48.670;8.994;2023-03-01T14:33:21;6.30;89.50
3919;DHT22;1974;48.670;8.994;2023-03-01T14:35:57;6.30;89.50
3919;DHT22;1974;48.670;8.994;2023-03-01T14:38:30;6.30;89.40
3919;DHT22;1974;48.670;8.994;2023-03-01T14:41:00;6.40;89.80
3919;DHT22;1974;48.670;8.994;2023-03-01T14:43:29;6.40;89.30
3919;DHT22;1974;48.670;8.994;2023-03-01T14:45:57;6.40;89.20
3919;DHT22;1974;48.670;8.994;2023-03-01T14:48:27;6.40;89.10
3919;DHT22;1974;48.670;8.994;2023-03-01T14:50:55;6.30;88.90
3919;DHT22;1974;48.670;8.994;2023-03-01T14:53:25;6.30;89.30
3919;DHT22;1974;48.670;8.994;2023-03-01T14:55:55;6.20;89.40
3919;DHT22;1974;48.670;8.994;2023-03-01T14:58:24;6.20;90.00
3919;DHT22;1974;48.670;8.994;2023-03-01T15:00:53;6.10;90.10
3919;DHT22;1974;48.670;8.994;2023-03-01T15:03:27;6.10;90.30
3919;DHT22;1974;48.670;8.994;2023-03-01T15:05:56;6.10;90.10
3919;DHT22;1974;48.670;8.994;2023-03-01T15:08:24;6.10;90.40
3919;DHT22;1974;48.670;8.994;2023-03-01T15:11:00;6.10;90.60
3919;DHT22;1974;48.670;8.994;2023-03-01T15:13:31;6.10;90.80
3919;DHT22;1974;48.670;8.994;2023-03-01T15:16:09;6.10;90.70
3919;DHT22;1974;48.670;8.994;2023-03-01T15:18:43;6.10;91.00
3919;DHT22;1974;48.670;8.994;2023-03-01T15:21:17;6.00;90.90
3919;DHT22;1974;48.670;8.994;2023-03-01T15:23:49;6.00;91.20
3919;DHT22;1974;48.670;8.994;2023-03-01T15:26:23;6.00;91.20
3919;DHT22;1974;48.670;8.994;2023-03-01T15:28:52;6.00;91.20
3919;DHT22;1974;48.670;8.994;2023-03-01T15:31:24;5.90;91.20
3919;DHT22;1974;48.670;8.994;2023-03-01T15:34:08;5.90;91.80
3919;DHT22;1974;48.670;8.994;2023-03-01T15:36:42;5.90;91.60
3919;DHT22;1974;48.670;8.994;2023-03-01T15:39:42;5.90;91.50
3919;DHT22;1974;48.670;8.994;2023-03-01T15:42:36;5.90;91.60
3919;DHT22;1974;48.670;8.994;2023-03-01T15:45:11;5.90;91.80
3919;DHT22;1974;48.670;8.994;2023-03-01T15:47:47;5.90;92.10
3919;DHT22;1974;48.670;8.994;2023-03-01T15:50:19;5.80;92.00
3919;DHT22;1974;48.670;8.994;2023-03-01T15:52:48;5.80;92.10
3919;DHT22;1974;48.670;8.994;2023-03-01T15:55:17;5.70;92.20
3919;DHT22;1974;48.670;8.994;2023-03-01T15:57:45;5.70;92.30
3919;DHT22;1974;48.670;8.994;2023-03-01T16:00:13;5.70;92.50
3919;DHT22;1974;48.670;8.994;2023-03-01T16:02:41;5.60;92.60
3919;DHT22;1974;48.670;8.994;2023-03-01T16:05:18;5.60;92.70
3919;DHT22;1974;48.670;8.994;2023-03-01T16:07:46;5.50;92.70
3919;DHT22;1974;48.670;8.994;2023-03-01T16:10:13;5.50;93.00
3919;DHT22;1974;48.670;8.994;2023-03-01T16:12:40;5.40;92.80
3919;DHT22;1974;48.670;8.994;2023-03-01T16:15:13;5.40;92.80
3919;DHT22;1974;48.670;8.994;2023-03-01T16:17:41;5.40;92.90
3919;DHT22;1974;48.670;8.994;2023-03-01T16:20:09;5.40;92.90
3919;DHT22;1974;48.670;8.994;2023-03-01T16:22:37;5.40;93.50
3919;DHT22;1974;48.670;8.994;2023-03-01T16:25:05;5.30;93.10
3919;DHT22;1974;48.670;8.994;2023-03-01T16:27:33;5.30;93.10
3919;DHT22;1974;48.670;8.994;2023-03-01T16:30:00;5.30;93.40
3919;DHT22;1974;48.670;8.994;2023-03-01T16:32:26;5.20;93.20
3919;DHT22;1974;48.670;8.994;2023-03-01T16:34:53;5.20;93.20
3919;DHT22;1974;48.670;8.994;2023-03-01T16:37:20;5.20;93.20
3919;DHT22;1974;48.670;8.994;2023-03-01T16:39:48;5.20;93.40
3919;DHT22;1974;48.670;8.994;2023-03-01T16:42:17;5.10;93.40
3919;DHT22;1974;48.670;8.994;2023-03-01T16:44:43;5.10;93.40
3919;DHT22;1974;48.670;8.994;2023-03-01T16:47:10;5.10;93.60